sensor_id;sensor_type;location;lat;lon;timestamp;temperature;humidity
71082;SHT31;58740;50.672;18.690;2022-08-19T00:02:16;24.00;63.80
71082;SHT31;58740;50.672;18.690;2022-08-19T00:04:44;23.98;63.78
71082;SHT31;58740;50.672;18.690;2022-08-19T00:07:15;23.98;63.95
71082;SHT31;58740;50.672;18.690;2022-08-19T00:09:43;23.96;63.97
71082;SHT31;58740;50.672;18.690;2022-08-19T00:12:10;23.95;63.99
71082;SHT31;58740;50.672;18.690;2022-08-19T00:14:40;23.95;64.10
71082;SHT31;58740;50.672;18.690;2022-08-19T00:17:09;23.94;64.03
71082;SHT31;58740;50.672;18.690;2022-08-19T00:19:37;23.92;64.19
71082;SHT31;58740;50.672;18.690;2022-08-19T00:22:05;23.89;64.23
71082;SHT31;58740;50.672;18.690;2022-08-19T00:24:36;23.87;64.31
71082;SHT31;58740;50.672;18.690;2022-08-19T00:27:05;23.82;64.32
71082;SHT31;58740;50.672;18.690;2022-08-19T00:29:53;23.81;64.46
71082;SHT31;58740;50.672;18.690;2022-08-19T00:32:21;23.78;64.53
71082;SHT31;58740;50.672;18.690;2022-08-19T00:34:50;23.76;64.66
71082;SHT31;58740;50.672;18.690;2022-08-19T00:37:20;23.75;64.68
71082;SHT31;58740;50.672;18.690;2022-08-19T00:39:51;23.74;64.79
71082;SHT31;58740;50.672;18.690;2022-08-19T00:42:19;23.73;64.81
71082;SHT31;58740;50.672;18.690;2022-08-19T00:44:48;23.72;64.86
71082;SHT31;58740;50.672;18.690;2022-08-19T00:47:17;23.70;65.00
71082;SHT31;58740;50.672;18.690;2022-08-19T00:49:50;23.68;65.07
71082;SHT31;58740;50.672;18.690;2022-08-19T00:52:24;23.68;65.10
71082;SHT31;58740;50.672;18.690;2022-08-19T00:55:01;23.69;65.18
71082;SHT31;58740;50.672;18.690;2022-08-19T00:57:40;23.70;65.22
71082;SHT31;58740;50.672;18.690;2022-08-19T01:00:14;23.69;65.14
71082;SHT31;58740;50.672;18.690;2022-08-19T01:02:45;23.67;65.24
71082;SHT31;58740;50.672;18.690;2022-08-19T01:05:14;23.62;65.32
71082;SHT31;58740;50.672;18.690;2022-08-19T01:07:48;23.57;65.38
71082;SHT31;58740;50.672;18.690;2022-08-19T01:10:19;23.57;65.56
71082;SHT31;58740;50.672;18.690;2022-08-19T01:12:52;23.57;65.58
71082;SHT31;58740;50.672;18.690;2022-08-19T01:15:25;23.57;65.57
71082;SHT31;58740;50.672;18.690;2022-08-19T01:18:00;23.55;65.71
71082;SHT31;58740;50.672;18.690;2022-08-19T01:20:33;23.52;65.77
71082;SHT31;58740;50.672;18.690;2022-08-19T01:23:02;23.49;65.81
71082;SHT31;58740;50.672;18.690;2022-08-19T01:25:32;23.43;65.97
71082;SHT31;58740;50.672;18.690;2022-08-19T01:28:16;23.41;66.03
71082;SHT31;58740;50.672;18.690;2022-08-19T01:31:13;23.39;66.10
71082;SHT31;58740;50.672;18.690;2022-08-19T01:33:55;23.36;66.25
71082;SHT31;58740;50.672;18.690;2022-08-19T01:36:31;23.34;66.27
71082;SHT31;58740;50.672;18.690;2022-08-19T01:39:07;23.33;66.43
71082;SHT31;58740;50.672;18.690;2022-08-19T01:41:41;23.33;66.59
71082;SHT31;58740;50.672;18.690;2022-08-19T01:44:08;23.33;66.43
71082;SHT31;58740;50.672;18.690;2022-08-19T01:46:46;23.34;66.52
71082;SHT31;58740;50.672;18.690;2022-08-19T01:49:17;23.34;66.63
71082;SHT31;58740;50.672;18.690;2022-08-19T01:51:48;23.34;66.62
71082;SHT31;58740;50.672;18.690;2022-08-19T01:54:18;23.33;66.63
71082;SHT31;58740;50.672;18.690;2022-08-19T01:56:56;23.31;66.61
71082;SHT31;58740;50.672;18.690;2022-08-19T01:59:34;23.27;66.75
71082;SHT31;58740;50.672;18.690;2022-08-19T02:02:04;23.26;66.79
71082;SHT31;58740;50.672;18.690;2022-08-19T02:04:36;23.24;66.85
71082;SHT31;58740;50.672;18.690;2022-08-19T02:07:06;23.23;66.80
71082;SHT31;58740;50.672;18.690;2022-08-19T02:09:35;23.24;66.96
71082;SHT31;58740;50.672;18.690;2022-08-19T02:12:04;23.24;66.90
71082;SHT31;58740;50.672;18.690;2022-08-19T02:14:35;23.24;66.90
71082;SHT31;58740;50.672;18.690;2022-08-19T02:17:03;23.23;66.92
71082;SHT31;58740;50.672;18.690;2022-08-19T02:19:31;23.25;67.10
71082;SHT31;58740;50.672;18.690;2022-08-19T02:22:00;23.24;66.99
71082;SHT31;58740;50.672;18.690;2022-08-19T02:24:28;23.23;66.97
71082;SHT31;58740;50.672;18.690;2022-08-19T02:26:55;23.23;67.01
71082;SHT31;58740;50.672;18.690;2022-08-19T02:29:24;23.21;66.90
71082;SHT31;58740;50.672;18.690;2022-08-19T02:31:52;23.18;67.03
71082;SHT31;58740;50.672;18.690;2022-08-19T02:34:19;23.17;67.16
71082;SHT31;58740;50.672;18.690;2022-08-19T02:36:47;23.17;67.26
71082;SHT31;58740;50.672;18.690;2022-08-19T02:39:18;23.17;67.13
71082;SHT31;58740;50.672;18.690;2022-08-19T02:41:46;23.17;67.44
71082;SHT31;58740;50.672;18.690;2022-08-19T02:44:14;23.17;67.37
71082;SHT31;58740;50.672;18.690;2022-08-19T02:46:57;23.18;67.40
71082;SHT31;58740;50.672;18.690;2022-08-19T02:49:25;23.19;67.32
71082;SHT31;58740;50.672;18.690;2022-08-19T02:51:53;23.18;67.30
71082;SHT31;58740;50.672;18.690;2022-08-19T02:54:21;23.15;67.31
71082;SHT31;58740;50.672;18.690;2022-08-19T02:56:49;23.12;67.38
71082;SHT31;58740;50.672;18.690;2022-08-19T02:59:19;23.10;67.42
71082;SHT31;58740;50.672;18.690;2022-08-19T03:01:49;23.04;67.40
71082;SHT31;58740;50.672;18.690;2022-08-19T03:04:18;23.03;67.58
71082;SHT31;58740;50.672;18.690;2022-08-19T03:06:46;23.01;67.74
71082;SHT31;58740;50.672;18.690;2022-08-19T03:09:16;23.02;67.80
71082;SHT31;58740;50.672;18.690;2022-08-19T03:11:46;23.05;67.87
71082;SHT31;58740;50.672;18.690;2022-08-19T03:14:19;23.07;67.76
71082;SHT31;58740;50.672;18.690;2022-08-19T03:16:48;23.03;67.79
71082;SHT31;58740;50.672;18.690;2022-08-19T03:19:19;22.99;67.71
71082;SHT31;58740;50.672;18.690;2022-08-19T03:21:48;22.98;68.05
71082;SHT31;58740;50.672;18.690;2022-08-19T03:24:18;22.98;67.87
71082;SHT31;58740;50.672;18.690;2022-08-19T03:26:48;22.98;67.85
71082;SHT31;58740;50.672;18.690;2022-08-19T03:29:23;22.99;67.82
71082;SHT31;58740;50.672;18.690;2022-08-19T03:31:58;23.00;67.87
71082;SHT31;58740;50.672;18.690;2022-08-19T03:34:31;23.01;67.88
71082;SHT31;58740;50.672;18.690;2022-08-19T03:37:07;23.02;67.78
71082;SHT31;58740;50.672;18.690;2022-08-19T03:39:40;23.00;67.69
71082;SHT31;58740;50.672;18.690;2022-08-19T03:42:09;22.97;67.71
71082;SHT31;58740;50.672;18.690;2022-08-19T03:44:58;22.96;67.61
71082;SHT31;58740;50.672;18.690;2022-08-19T03:47:26;22.98;67.62
71082;SHT31;58740;50.672;18.690;2022-08-19T03:49:53;23.01;67.58
71082;SHT31;58740;50.672;18.690;2022-08-19T03:52:21;23.00;67.55
71082;SHT31;58740;50.672;18.690;2022-08-19T03:54:49;23.02;67.66
71082;SHT31;58740;50.672;18.690;2022-08-19T03:57:17;23.04;67.63
71082;SHT31;58740;50.672;18.690;2022-08-19T03:59:44;23.03;67.56
71082;SHT31;58740;50.672;18.690;2022-08-19T04:02:12;23.01;67.37
71082;SHT31;58740;50.672;18.690;2022-08-19T04:04:42;22.98;67.41
71082;SHT31;58740;50.672;18.690;2022-08-19T04:07:11;22.99;67.44
71082;SHT31;58740;50.672;18.690;2022-08-19T04:09:43;22.99;67.43
71082;SHT31;58740;50.672;18.690;2022-08-19T04:12:11;22.98;67.36
71082;SHT31;58740;50.672;18.690;2022-08-19T04:14:39;22.99;67.43
71082;SHT31;58740;50.672;18.690;2022-08-19T04:17:07;22.99;67.41
71082;SHT31;58740;50.672;18.690;2022-08-19T04:19:35;22.98;67.58
71082;SHT31;58740;50.672;18.690;2022-08-19T04:22:03;23.00;67.63
71082;SHT31;58740;50.672;18.690;2022-08-19T04:24:32;22.97;67.45
71082;SHT31;58740;50.672;18.690;2022-08-19T04:27:02;22.97;67.52
71082;SHT31;58740;50.672;18.690;2022-08-19T04:29:31;23.00;67.59
71082;SHT31;58740;50.672;18.690;2022-08-19T04:31:59;23.00;67.50
71082;SHT31;58740;50.672;18.690;2022-08-19T04:34:36;22.99;67.59
71082;SHT31;58740;50.672;18.690;2022-08-19T04:37:25;22.99;67.60
71082;SHT31;58740;50.672;18.690;2022-08-19T04:40:03;22.98;67.64
71082;SHT31;58740;50.672;18.690;2022-08-19T04:42:52;22.99;67.68
71082;SHT31;58740;50.672;18.690;2022-08-19T04:45:21;23.02;67.66
71082;SHT31;58740;50.672;18.690;2022-08-19T04:47:53;23.02;67.60
71082;SHT31;58740;50.672;18.690;2022-08-19T04:50:46;23.05;67.60
71082;SHT31;58740;50.672;18.690;2022-08-19T04:53:14;23.06;67.58
71082;SHT31;58740;50.672;18.690;2022-08-19T04:55:42;23.09;67.57
71082;SHT31;58740;50.672;18.690;2022-08-19T04:58:10;23.10;67.46
71082;SHT31;58740;50.672;18.690;2022-08-19T05:00:38;23.11;67.39
71082;SHT31;58740;50.672;18.690;2022-08-19T05:03:07;23.14;67.32
71082;SHT31;58740;50.672;18.690;2022-08-19T05:05:39;23.17;67.26
71082;SHT31;58740;50.672;18.690;2022-08-19T05:08:12;23.20;67.28
71082;SHT31;58740;50.672;18.690;2022-08-19T05:10:57;23.25;67.22
71082;SHT31;58740;50.672;18.690;2022-08-19T05:13:25;23.30;67.10
71082;SHT31;58740;50.672;18.690;2022-08-19T05:15:55;23.35;66.96
71082;SHT31;58740;50.672;18.690;2022-08-19T05:18:25;23.40;66.78
71082;SHT31;58740;50.672;18.690;2022-08-19T05:21:13;23.47;66.42
71082;SHT31;58740;50.672;18.690;2022-08-19T05:24:04;23.54;66.27
71082;SHT31;58740;50.672;18.690;2022-08-19T05:26:36;23.59;66.13
71082;SHT31;58740;50.672;18.690;2022-08-19T05:29:13;23.65;65.95
71082;SHT31;58740;50.672;18.690;2022-08-19T05:31:46;23.71;65.78
71082;SHT31;58740;50.672;18.690;2022-08-19T05:34:19;23.75;65.64
71082;SHT31;58740;50.672;18.690;2022-08-19T05:36:57;23.78;65.63
71082;SHT31;58740;50.672;18.690;2022-08-19T05:39:27;23.82;65.51
71082;SHT31;58740;50.672;18.690;2022-08-19T05:42:09;23.88;65.48
71082;SHT31;58740;50.672;18.690;2022-08-19T05:44:40;23.94;65.38
71082;SHT31;58740;50.672;18.690;2022-08-19T05:47:13;24.01;65.39
71082;SHT31;58740;50.672;18.690;2022-08-19T05:49:42;24.08;65.40
71082;SHT31;58740;50.672;18.690;2022-08-19T05:52:12;24.13;65.22
71082;SHT31;58740;50.672;18.690;2022-08-19T05:54:45;24.16;64.87
71082;SHT31;58740;50.672;18.690;2022-08-19T05:57:18;24.18;64.52
71082;SHT31;58740;50.672;18.690;2022-08-19T05:59:46;24.20;64.62
71082;SHT31;58740;50.672;18.690;2022-08-19T06:02:19;24.23;64.58
71082;SHT31;58740;50.672;18.690;2022-08-19T06:04:47;24.26;64.63
71082;SHT31;58740;50.672;18.690;2022-08-19T06:07:15;24.29;64.41
71082;SHT31;58740;50.672;18.690;2022-08-19T06:09:44;24.33;64.40
71082;SHT31;58740;50.672;18.690;2022-08-19T06:12:28;24.42;64.31
71082;SHT31;58740;50.672;18.690;2022-08-19T06:15:03;24.52;63.91
71082;SHT31;58740;50.672;18.690;2022-08-19T06:17:38;24.60;63.53
71082;SHT31;58740;50.672;18.690;2022-08-19T06:20:07;24.66;63.49
71082;SHT31;58740;50.672;18.690;2022-08-19T06:22:41;24.71;63.16
71082;SHT31;58740;50.672;18.690;2022-08-19T06:25:12;24.77;63.04
71082;SHT31;58740;50.672;18.690;2022-08-19T06:27:41;24.82;62.60
71082;SHT31;58740;50.672;18.690;2022-08-19T06:30:31;24.89;62.83
71082;SHT31;58740;50.672;18.690;2022-08-19T06:32:59;25.00;62.56
71082;SHT31;58740;50.672;18.690;2022-08-19T06:35:27;25.10;62.39
71082;SHT31;58740;50.672;18.690;2022-08-19T06:37:56;25.17;62.23
71082;SHT31;58740;50.672;18.690;2022-08-19T06:40:24;25.25;62.07
71082;SHT31;58740;50.672;18.690;2022-08-19T06:42:54;25.32;61.65
71082;SHT31;58740;50.672;18.690;2022-08-19T06:45:24;25.41;61.38
71082;SHT31;58740;50.672;18.690;2022-08-19T06:48:05;25.51;61.21
71082;SHT31;58740;50.672;18.690;2022-08-19T06:50:34;25.61;61.10
71082;SHT31;58740;50.672;18.690;2022-08-19T06:53:06;25.68;60.97
71082;SHT31;58740;50.672;18.690;2022-08-19T06:55:33;25.74;60.46
71082;SHT31;58740;50.672;18.690;2022-08-19T06:58:03;25.77;60.24
71082;SHT31;58740;50.672;18.690;2022-08-19T07:00:32;25.80;59.98
71082;SHT31;58740;50.672;18.690;2022-08-19T07:03:01;25.83;60.03
71082;SHT31;58740;50.672;18.690;2022-08-19T07:05:38;25.85;59.85
71082;SHT31;58740;50.672;18.690;2022-08-19T07:08:12;25.90;59.20
71082;SHT31;58740;50.672;18.690;2022-08-19T07:10:44;25.95;59.34
71082;SHT31;58740;50.672;18.690;2022-08-19T07:13:13;26.01;59.24
71082;SHT31;58740;50.672;18.690;2022-08-19T07:15:40;26.08;59.52
71082;SHT31;58740;50.672;18.690;2022-08-19T07:18:09;26.17;59.04
71082;SHT31;58740;50.672;18.690;2022-08-19T07:20:39;26.26;58.82
71082;SHT31;58740;50.672;18.690;2022-08-19T07:23:08;26.35;58.31
71082;SHT31;58740;50.672;18.690;2022-08-19T07:25:42;26.44;58.11
71082;SHT31;58740;50.672;18.690;2022-08-19T07:28:19;26.53;57.97
71082;SHT31;58740;50.672;18.690;2022-08-19T07:30:51;26.61;57.69
71082;SHT31;58740;50.672;18.690;2022-08-19T07:33:19;26.69;58.05
71082;SHT31;58740;50.672;18.690;2022-08-19T07:35:47;26.79;57.92
71082;SHT31;58740;50.672;18.690;2022-08-19T07:38:17;26.90;57.61
71082;SHT31;58740;50.672;18.690;2022-08-19T07:40:44;27.00;56.78
71082;SHT31;58740;50.672;18.690;2022-08-19T07:43:13;27.12;56.19
71082;SHT31;58740;50.672;18.690;2022-08-19T07:45:44;27.21;55.93
71082;SHT31;58740;50.672;18.690;2022-08-19T07:48:12;27.29;55.27
71082;SHT31;58740;50.672;18.690;2022-08-19T07:50:41;27.36;54.97
71082;SHT31;58740;50.672;18.690;2022-08-19T07:53:10;27.43;54.71
71082;SHT31;58740;50.672;18.690;2022-08-19T07:55:39;27.50;55.30
71082;SHT31;58740;50.672;18.690;2022-08-19T07:58:11;27.60;54.97
71082;SHT31;58740;50.672;18.690;2022-08-19T08:00:43;27.70;55.12
71082;SHT31;58740;50.672;18.690;2022-08-19T08:03:14;27.81;54.92
71082;SHT31;58740;50.672;18.690;2022-08-19T08:05:46;27.87;54.24
71082;SHT31;58740;50.672;18.690;2022-08-19T08:08:33;27.94;54.70
71082;SHT31;58740;50.672;18.690;2022-08-19T08:11:20;28.05;54.71
71082;SHT31;58740;50.672;18.690;2022-08-19T08:13:50;28.09;53.45
71082;SHT31;58740;50.672;18.690;2022-08-19T08:16:39;28.13;52.83
71082;SHT31;58740;50.672;18.690;2022-08-19T08:19:14;28.14;51.94
71082;SHT31;58740;50.672;18.690;2022-08-19T08:21:53;28.16;51.65
71082;SHT31;58740;50.672;18.690;2022-08-19T08:24:27;28.19;52.28
71082;SHT31;58740;50.672;18.690;2022-08-19T08:26:58;28.24;51.28
71082;SHT31;58740;50.672;18.690;2022-08-19T08:29:28;28.31;52.07
71082;SHT31;58740;50.672;18.690;2022-08-19T08:32:01;28.42;51.54
71082;SHT31;58740;50.672;18.690;2022-08-19T08:34:40;28.51;51.02
71082;SHT31;58740;50.672;18.690;2022-08-19T08:37:09;28.55;50.97
71082;SHT31;58740;50.672;18.690;2022-08-19T08:39:37;28.57;51.26
71082;SHT31;58740;50.672;18.690;2022-08-19T08:44:57;28.59;51.40
71082;SHT31;58740;50.672;18.690;2022-08-19T08:47:37;28.63;50.86
71082;SHT31;58740;50.672;18.690;2022-08-19T08:50:13;28.64;50.05
71082;SHT31;58740;50.672;18.690;2022-08-19T08:52:53;28.66;49.39
71082;SHT31;58740;50.672;18.690;2022-08-19T08:55:26;28.74;49.38
71082;SHT31;58740;50.672;18.690;2022-08-19T09:00:44;28.98;48.60
71082;SHT31;58740;50.672;18.690;2022-08-19T09:03:17;29.07;48.55
71082;SHT31;58740;50.672;18.690;2022-08-19T09:05:58;29.10;48.63
71082;SHT31;58740;50.672;18.690;2022-08-19T09:12:00;29.13;49.35
71082;SHT31;58740;50.672;18.690;2022-08-19T09:15:03;29.13;49.13
71082;SHT31;58740;50.672;18.690;2022-08-19T09:17:35;29.19;49.26
71082;SHT31;58740;50.672;18.690;2022-08-19T09:20:12;29.30;49.49
71082;SHT31;58740;50.672;18.690;2022-08-19T09:22:47;29.44;48.65
71082;SHT31;58740;50.672;18.690;2022-08-19T09:25:17;29.54;47.57
71082;SHT31;58740;50.672;18.690;2022-08-19T09:27:55;29.64;47.57
71082;SHT31;58740;50.672;18.690;2022-08-19T09:30:30;29.72;47.40
71082;SHT31;58740;50.672;18.690;2022-08-19T09:33:08;29.75;48.15
71082;SHT31;58740;50.672;18.690;2022-08-19T09:35:36;29.77;48.02
71082;SHT31;58740;50.672;18.690;2022-08-19T09:38:20;29.80;46.18
71082;SHT31;58740;50.672;18.690;2022-08-19T09:40:48;29.79;46.69
71082;SHT31;58740;50.672;18.690;2022-08-19T09:43:17;29.79;46.92
71082;SHT31;58740;50.672;18.690;2022-08-19T09:46:06;29.80;47.30
71082;SHT31;58740;50.672;18.690;2022-08-19T09:48:36;29.79;47.25
71082;SHT31;58740;50.672;18.690;2022-08-19T09:51:06;29.79;47.02
71082;SHT31;58740;50.672;18.690;2022-08-19T09:53:38;29.76;46.15
71082;SHT31;58740;50.672;18.690;2022-08-19T09:56:06;29.74;46.28
71082;SHT31;58740;50.672;18.690;2022-08-19T09:58:36;29.71;46.19
71082;SHT31;58740;50.672;18.690;2022-08-19T10:01:05;29.69;46.66
71082;SHT31;58740;50.672;18.690;2022-08-19T10:03:35;29.66;47.21
71082;SHT31;58740;50.672;18.690;2022-08-19T10:06:04;29.65;46.98
71082;SHT31;58740;50.672;18.690;2022-08-19T10:08:43;29.63;47.08
71082;SHT31;58740;50.672;18.690;2022-08-19T10:11:17;29.64;47.55
71082;SHT31;58740;50.672;18.690;2022-08-19T10:14:03;29.64;47.72
71082;SHT31;58740;50.672;18.690;2022-08-19T10:16:33;29.64;47.79
71082;SHT31;58740;50.672;18.690;2022-08-19T10:19:06;29.65;47.05
71082;SHT31;58740;50.672;18.690;2022-08-19T10:21:33;29.64;47.61
71082;SHT31;58740;50.672;18.690;2022-08-19T10:24:02;29.66;47.16
71082;SHT31;58740;50.672;18.690;2022-08-19T10:26:33;29.67;47.03
71082;SHT31;58740;50.672;18.690;2022-08-19T10:29:05;29.68;46.59
71082;SHT31;58740;50.672;18.690;2022-08-19T10:31:35;29.72;46.54
71082;SHT31;58740;50.672;18.690;2022-08-19T10:34:24;29.77;46.70
71082;SHT31;58740;50.672;18.690;2022-08-19T10:36:55;29.79;46.84
71082;SHT31;58740;50.672;18.690;2022-08-19T10:39:29;29.82;47.01
71082;SHT31;58740;50.672;18.690;2022-08-19T10:42:10;29.83;46.98
71082;SHT31;58740;50.672;18.690;2022-08-19T10:44:40;29.84;47.01
71082;SHT31;58740;50.672;18.690;2022-08-19T10:47:08;29.86;46.85
71082;SHT31;58740;50.672;18.690;2022-08-19T10:49:54;29.87;47.16
71082;SHT31;58740;50.672;18.690;2022-08-19T10:52:43;29.86;46.78
71082;SHT31;58740;50.672;18.690;2022-08-19T10:55:18;29.88;46.53
71082;SHT31;58740;50.672;18.690;2022-08-19T10:58:11;29.92;47.02
71082;SHT31;58740;50.672;18.690;2022-08-19T11:00:42;29.94;46.76
71082;SHT31;58740;50.672;18.690;2022-08-19T11:03:18;30.00;46.44
71082;SHT31;58740;50.672;18.690;2022-08-19T11:05:46;30.04;45.79
71082;SHT31;58740;50.672;18.690;2022-08-19T11:08:13;30.05;46.17
71082;SHT31;58740;50.672;18.690;2022-08-19T11:10:51;30.06;45.96
71082;SHT31;58740;50.672;18.690;2022-08-19T11:13:22;30.08;46.38
71082;SHT31;58740;50.672;18.690;2022-08-19T11:16:00;30.14;46.44
71082;SHT31;58740;50.672;18.690;2022-08-19T11:18:39;30.26;45.87
71082;SHT31;58740;50.672;18.690;2022-08-19T11:21:15;30.35;45.50
71082;SHT31;58740;50.672;18.690;2022-08-19T11:23:47;30.40;45.54
71082;SHT31;58740;50.672;18.690;2022-08-19T11:26:19;30.41;45.76
71082;SHT31;58740;50.672;18.690;2022-08-19T11:28:49;30.42;45.58
71082;SHT31;58740;50.672;18.690;2022-08-19T11:31:22;30.45;45.62
71082;SHT31;58740;50.672;18.690;2022-08-19T11:33:56;30.46;45.57
71082;SHT31;58740;50.672;18.690;2022-08-19T11:36:27;30.51;46.05
71082;SHT31;58740;50.672;18.690;2022-08-19T11:38:56;30.54;45.54
71082;SHT31;58740;50.672;18.690;2022-08-19T11:41:24;30.54;46.25
71082;SHT31;58740;50.672;18.690;2022-08-19T11:43:53;30.59;46.21
71082;SHT31;58740;50.672;18.690;2022-08-19T11:46:23;30.65;46.11
71082;SHT31;58740;50.672;18.690;2022-08-19T11:48:53;30.75;45.87
71082;SHT31;58740;50.672;18.690;2022-08-19T11:51:22;30.82;45.74
71082;SHT31;58740;50.672;18.690;2022-08-19T11:53:52;30.86;46.35
71082;SHT31;58740;50.672;18.690;2022-08-19T11:56:23;30.87;45.78
71082;SHT31;58740;50.672;18.690;2022-08-19T11:58:53;30.88;45.49
71082;SHT31;58740;50.672;18.690;2022-08-19T12:01:24;30.85;45.24
71082;SHT31;58740;50.672;18.690;2022-08-19T12:03:54;30.83;44.92
71082;SHT31;58740;50.672;18.690;2022-08-19T12:06:25;30.81;45.14
71082;SHT31;58740;50.672;18.690;2022-08-19T12:08:59;30.76;45.03
71082;SHT31;58740;50.672;18.690;2022-08-19T12:11:32;30.74;45.16
71082;SHT31;58740;50.672;18.690;2022-08-19T12:14:01;30.71;45.87
71082;SHT31;58740;50.672;18.690;2022-08-19T12:16:29;30.69;45.85
71082;SHT31;58740;50.672;18.690;2022-08-19T12:19:00;30.67;45.82
71082;SHT31;58740;50.672;18.690;2022-08-19T12:21:33;30.63;45.84
71082;SHT31;58740;50.672;18.690;2022-08-19T12:24:05;30.60;45.61
71082;SHT31;58740;50.672;18.690;2022-08-19T12:26:34;30.56;45.72
71082;SHT31;58740;50.672;18.690;2022-08-19T12:29:20;30.52;45.77
71082;SHT31;58740;50.672;18.690;2022-08-19T12:31:51;30.48;45.59
71082;SHT31;58740;50.672;18.690;2022-08-19T12:34:19;30.44;45.58
71082;SHT31;58740;50.672;18.690;2022-08-19T12:36:47;30.42;45.45
71082;SHT31;58740;50.672;18.690;2022-08-19T12:39:17;30.40;45.55
71082;SHT31;58740;50.672;18.690;2022-08-19T12:41:45;30.40;45.77
71082;SHT31;58740;50.672;18.690;2022-08-19T12:44:21;30.39;45.79
71082;SHT31;58740;50.672;18.690;2022-08-19T12:46:59;30.37;46.09
71082;SHT31;58740;50.672;18.690;2022-08-19T12:49:27;30.37;46.22
71082;SHT31;58740;50.672;18.690;2022-08-19T12:52:16;30.37;46.36
71082;SHT31;58740;50.672;18.690;2022-08-19T12:54:50;30.36;46.10
71082;SHT31;58740;50.672;18.690;2022-08-19T12:57:22;30.37;46.43
71082;SHT31;58740;50.672;18.690;2022-08-19T13:00:09;30.38;46.54
71082;SHT31;58740;50.672;18.690;2022-08-19T13:02:45;30.41;46.94
71082;SHT31;58740;50.672;18.690;2022-08-19T13:05:18;30.42;46.91
71082;SHT31;58740;50.672;18.690;2022-08-19T13:07:50;30.43;47.44
71082;SHT31;58740;50.672;18.690;2022-08-19T13:10:25;30.46;47.49
71082;SHT31;58740;50.672;18.690;2022-08-19T13:12:57;30.48;46.78
71082;SHT31;58740;50.672;18.690;2022-08-19T13:15:27;30.50;47.04
71082;SHT31;58740;50.672;18.690;2022-08-19T13:17:56;30.48;47.41
71082;SHT31;58740;50.672;18.690;2022-08-19T13:20:25;30.49;47.28
71082;SHT31;58740;50.672;18.690;2022-08-19T13:22:54;30.49;47.29
71082;SHT31;58740;50.672;18.690;2022-08-19T13:25:22;30.51;47.70
71082;SHT31;58740;50.672;18.690;2022-08-19T13:27:50;30.53;46.98
71082;SHT31;58740;50.672;18.690;2022-08-19T13:30:19;30.55;46.50
71082;SHT31;58740;50.672;18.690;2022-08-19T13:33:07;30.58;45.81
71082;SHT31;58740;50.672;18.690;2022-08-19T13:38:17;30.62;45.68
71082;SHT31;58740;50.672;18.690;2022-08-19T13:40:49;30.62;45.73
71082;SHT31;58740;50.672;18.690;2022-08-19T13:43:22;30.61;45.98
71082;SHT31;58740;50.672;18.690;2022-08-19T13:45:54;30.63;45.86
71082;SHT31;58740;50.672;18.690;2022-08-19T13:48:25;30.63;45.98
71082;SHT31;58740;50.672;18.690;2022-08-19T13:50:54;30.64;45.78
71082;SHT31;58740;50.672;18.690;2022-08-19T13:53:22;30.66;45.61
71082;SHT31;58740;50.672;18.690;2022-08-19T13:55:50;30.68;45.86
71082;SHT31;58740;50.672;18.690;2022-08-19T13:58:20;30.67;46.04
71082;SHT31;58740;50.672;18.690;2022-08-19T14:00:49;30.69;46.05
71082;SHT31;58740;50.672;18.690;2022-08-19T14:03:18;30.72;46.07
71082;SHT31;58740;50.672;18.690;2022-08-19T14:05:45;30.77;46.39
71082;SHT31;58740;50.672;18.690;2022-08-19T14:08:14;30.80;47.04
71082;SHT31;58740;50.672;18.690;2022-08-19T14:10:42;30.80;46.36
71082;SHT31;58740;50.672;18.690;2022-08-19T14:13:17;30.82;46.23
71082;SHT31;58740;50.672;18.690;2022-08-19T14:15:48;30.82;46.26
71082;SHT31;58740;50.672;18.690;2022-08-19T14:18:17;30.86;46.03
71082;SHT31;58740;50.672;18.690;2022-08-19T14:20:45;30.90;46.07
71082;SHT31;58740;50.672;18.690;2022-08-19T14:23:13;30.92;46.15
71082;SHT31;58740;50.672;18.690;2022-08-19T14:25:41;30.91;46.25
71082;SHT31;58740;50.672;18.690;2022-08-19T14:28:10;30.91;46.57
71082;SHT31;58740;50.672;18.690;2022-08-19T14:30:38;30.89;46.71
71082;SHT31;58740;50.672;18.690;2022-08-19T14:33:06;30.85;46.72
71082;SHT31;58740;50.672;18.690;2022-08-19T14:35:35;30.85;46.33
71082;SHT31;58740;50.672;18.690;2022-08-19T14:38:05;30.90;46.10
71082;SHT31;58740;50.672;18.690;2022-08-19T14:40:34;30.91;45.92
71082;SHT31;58740;50.672;18.690;2022-08-19T14:43:02;30.92;45.72
71082;SHT31;58740;50.672;18.690;2022-08-19T14:45:34;30.93;45.70
71082;SHT31;58740;50.672;18.690;2022-08-19T14:48:07;30.96;45.58
71082;SHT31;58740;50.672;18.690;2022-08-19T14:50:45;30.97;45.82
71082;SHT31;58740;50.672;18.690;2022-08-19T14:53:13;30.98;45.95
71082;SHT31;58740;50.672;18.690;2022-08-19T14:55:44;31.01;45.85
71082;SHT31;58740;50.672;18.690;2022-08-19T14:58:13;31.03;45.65
71082;SHT31;58740;50.672;18.690;2022-08-19T15:00:57;31.02;45.50
71082;SHT31;58740;50.672;18.690;2022-08-19T15:03:27;31.00;45.29
71082;SHT31;58740;50.672;18.690;2022-08-19T15:05:56;30.99;45.06
71082;SHT31;58740;50.672;18.690;2022-08-19T15:08:25;30.97;44.92
71082;SHT31;58740;50.672;18.690;2022-08-19T15:10:55;30.95;44.17
71082;SHT31;58740;50.672;18.690;2022-08-19T15:13:25;30.92;44.13
71082;SHT31;58740;50.672;18.690;2022-08-19T15:15:55;30.88;44.73
71082;SHT31;58740;50.672;18.690;2022-08-19T15:18:24;30.83;44.75
71082;SHT31;58740;50.672;18.690;2022-08-19T15:20:52;30.79;44.58
71082;SHT31;58740;50.672;18.690;2022-08-19T15:23:20;30.76;44.19
71082;SHT31;58740;50.672;18.690;2022-08-19T15:25:49;30.74;44.34
71082;SHT31;58740;50.672;18.690;2022-08-19T15:28:23;30.70;44.50
71082;SHT31;58740;50.672;18.690;2022-08-19T15:30:52;30.67;44.26
71082;SHT31;58740;50.672;18.690;2022-08-19T15:33:20;30.65;44.51
71082;SHT31;58740;50.672;18.690;2022-08-19T15:35:48;30.60;45.09
71082;SHT31;58740;50.672;18.690;2022-08-19T15:38:18;30.55;45.96
71082;SHT31;58740;50.672;18.690;2022-08-19T15:40:50;30.47;46.10
71082;SHT31;58740;50.672;18.690;2022-08-19T15:43:18;30.41;45.83
71082;SHT31;58740;50.672;18.690;2022-08-19T15:45:50;30.36;45.69
71082;SHT31;58740;50.672;18.690;2022-08-19T15:48:17;30.32;45.94
71082;SHT31;58740;50.672;18.690;2022-08-19T15:50:45;30.27;45.89
71082;SHT31;58740;50.672;18.690;2022-08-19T15:53:13;30.23;46.17
71082;SHT31;58740;50.672;18.690;2022-08-19T15:55:42;30.17;47.14
71082;SHT31;58740;50.672;18.690;2022-08-19T15:58:12;30.11;47.65